createdAt,value
2019-03-03T00:02:17.589Z,4.07
2019-03-03T00:04:44.998Z,4.47
2019-03-03T00:07:12.534Z,5.43
2019-03-03T00:09:39.919Z,4.25
2019-03-03T00:12:07.312Z,4.97
2019-03-03T00:14:34.714Z,3.80
2019-03-03T00:17:02.122Z,3.80
2019-03-03T00:19:29.560Z,3.67
2019-03-03T00:21:56.967Z,3.83
2019-03-03T00:24:24.500Z,3.78
2019-03-03T00:26:51.984Z,3.78
2019-03-03T00:29:19.465Z,4.80
2019-03-03T00:31:46.872Z,4.75
2019-03-03T00:34:14.481Z,3.92
2019-03-03T00:36:47.522Z,3.92
2019-03-03T00:42:10.035Z,9.15
2019-03-03T00:44:39.940Z,4.65
2019-03-03T00:47:13.055Z,4.65
2019-03-03T00:49:40.467Z,4.25
2019-03-03T00:52:17.830Z,3.15
2019-03-03T00:54:46.627Z,5.72
2019-03-03T00:57:15.837Z,5.20
2019-03-03T00:59:48.256Z,5.30
2019-03-03T01:02:31.537Z,5.03
2019-03-03T01:05:18.797Z,4.40
2019-03-03T01:07:48.991Z,4.75
2019-03-03T01:10:19.904Z,3.62
2019-03-03T01:12:49.217Z,3.15
2019-03-03T01:15:17.031Z,4.25
2019-03-03T01:17:45.317Z,4.90
2019-03-03T01:20:27.560Z,4.93
2019-03-03T01:23:00.491Z,3.83
2019-03-03T01:25:27.938Z,3.83
2019-03-03T01:27:55.335Z,4.65
2019-03-03T01:30:22.787Z,3.65
2019-03-03T01:32:50.232Z,4.30
2019-03-03T01:35:17.626Z,4.28
2019-03-03T01:37:45.039Z,4.85
2019-03-03T01:40:12.450Z,4.00
2019-03-03T01:42:39.837Z,4.53
2019-03-03T01:45:10.750Z,4.40
2019-03-03T01:47:38.152Z,4.90
2019-03-03T01:50:05.562Z,3.65
2019-03-03T01:52:32.958Z,3.83
2019-03-03T01:55:00.457Z,4.60
2019-03-03T01:57:27.812Z,4.20
2019-03-03T01:59:55.203Z,5.95
2019-03-03T02:02:22.614Z,4.90
2019-03-03T02:04:50.005Z,4.35
2019-03-03T02:07:17.394Z,4.43
2019-03-03T02:09:44.804Z,4.65
2019-03-03T02:12:12.197Z,4.25
2019-03-03T02:14:39.631Z,3.62
2019-03-03T02:17:07.011Z,4.82
2019-03-03T02:19:34.428Z,5.78
2019-03-03T02:22:01.834Z,4.80
2019-03-03T02:24:29.232Z,6.00
2019-03-03T02:26:56.619Z,4.53
2019-03-03T02:29:24.090Z,3.92
2019-03-03T02:31:51.507Z,5.80
2019-03-03T02:34:18.902Z,6.78
2019-03-03T02:36:46.848Z,4.70
2019-03-03T02:39:15.086Z,4.93
2019-03-03T02:41:42.499Z,3.80
2019-03-03T02:44:09.900Z,5.18
2019-03-03T02:46:37.292Z,5.55
2019-03-03T02:49:04.715Z,4.87
2019-03-03T02:51:32.106Z,6.05
2019-03-03T02:53:59.684Z,5.47
2019-03-03T02:56:27.087Z,4.87
2019-03-03T02:58:55.417Z,7.75
2019-03-03T03:01:22.875Z,6.18
2019-03-03T03:03:50.333Z,6.40
2019-03-03T03:06:20.565Z,5.10
2019-03-03T03:08:53.676Z,5.90
2019-03-03T03:11:21.516Z,5.45
2019-03-03T03:13:48.924Z,5.95
2019-03-03T03:16:20.773Z,6.25
2019-03-03T03:18:50.990Z,6.10
2019-03-03T03:21:20.730Z,5.30
2019-03-03T03:23:53.852Z,5.22
2019-03-03T03:26:26.840Z,5.32
2019-03-03T03:29:10.098Z,5.28
2019-03-03T03:31:43.457Z,4.30
2019-03-03T03:37:03.510Z,9.23
2019-03-03T03:39:36.588Z,4.47
2019-03-03T03:42:14.780Z,5.10
2019-03-03T03:44:47.871Z,5.85
2019-03-03T03:47:32.961Z,5.05
2019-03-03T03:50:01.298Z,5.00
2019-03-03T03:55:24.829Z,9.30
2019-03-03T03:58:08.106Z,6.22
2019-03-03T04:00:39.994Z,6.30
2019-03-03T04:03:15.746Z,5.78
2019-03-03T04:05:58.968Z,4.82
2019-03-03T04:08:28.918Z,5.05
2019-03-03T04:13:48.905Z,11.75
2019-03-03T04:16:18.699Z,6.68
2019-03-03T04:18:48.919Z,7.32
2019-03-03T04:21:16.330Z,5.65
2019-03-03T04:23:45.232Z,5.80
2019-03-03T04:26:13.087Z,5.35
2019-03-03T04:28:55.477Z,6.00
2019-03-03T04:31:23.802Z,7.25
2019-03-03T04:33:51.194Z,6.20
2019-03-03T04:36:18.586Z,5.70
2019-03-03T04:39:00.866Z,6.45
2019-03-03T04:41:43.987Z,5.95
2019-03-03T04:44:11.391Z,5.30
2019-03-03T04:46:40.605Z,4.72
2019-03-03T04:49:12.899Z,5.75
2019-03-03T04:51:54.141Z,5.65
2019-03-03T04:54:33.232Z,7.10
2019-03-03T04:59:57.997Z,12.27
2019-03-03T05:02:36.294Z,7.00
2019-03-03T05:05:05.482Z,4.07
2019-03-03T05:07:36.742Z,7.03
2019-03-03T05:10:07.765Z,4.90
2019-03-03T05:12:39.083Z,5.15
2019-03-03T05:15:11.929Z,3.90
2019-03-03T05:17:42.288Z,3.92
2019-03-03T05:20:09.703Z,4.50
2019-03-03T05:22:37.134Z,4.62
2019-03-03T05:25:04.536Z,4.55
2019-03-03T05:27:31.951Z,5.40
2019-03-03T05:29:59.354Z,4.35
2019-03-03T05:32:26.825Z,4.05
2019-03-03T05:34:54.206Z,4.78
2019-03-03T05:37:21.613Z,4.60
2019-03-03T05:39:49.043Z,5.43
2019-03-03T05:42:16.439Z,6.87
2019-03-03T05:44:43.853Z,5.60
2019-03-03T05:47:11.272Z,6.68
2019-03-03T05:49:38.684Z,5.68
2019-03-03T05:52:06.080Z,6.28
2019-03-03T05:54:33.495Z,5.00
2019-03-03T05:57:00.901Z,5.28
2019-03-03T05:59:28.315Z,4.57
2019-03-03T06:01:55.705Z,5.43
2019-03-03T06:04:23.107Z,6.43
2019-03-03T06:06:50.646Z,6.32
2019-03-03T06:09:18.138Z,5.87
2019-03-03T06:11:45.551Z,5.10
2019-03-03T06:14:12.997Z,4.22
2019-03-03T06:16:40.407Z,6.10
2019-03-03T06:19:07.859Z,5.03
2019-03-03T06:21:35.246Z,6.18
2019-03-03T06:24:02.791Z,5.12
2019-03-03T06:26:30.182Z,5.32
2019-03-03T06:28:57.583Z,4.68
2019-03-03T06:31:25.011Z,4.80
2019-03-03T06:33:52.421Z,5.57
2019-03-03T06:36:19.866Z,3.97
2019-03-03T06:38:47.269Z,4.10
2019-03-03T06:41:14.771Z,5.78
2019-03-03T06:43:42.164Z,3.90
2019-03-03T06:46:09.563Z,4.53
2019-03-03T06:48:37.219Z,4.55
2019-03-03T06:51:04.783Z,4.50
2019-03-03T06:53:32.173Z,3.72
2019-03-03T06:55:59.779Z,5.18
2019-03-03T06:58:27.167Z,4.10
2019-03-03T07:00:54.588Z,5.45
2019-03-03T07:03:21.983Z,3.60
2019-03-03T07:05:49.558Z,3.72
2019-03-03T07:08:16.986Z,5.20
2019-03-03T07:10:44.388Z,4.50
2019-03-03T07:13:11.799Z,5.72
2019-03-03T07:15:39.186Z,4.10
2019-03-03T07:18:06.616Z,3.55
2019-03-03T07:20:34.099Z,4.25
2019-03-03T07:23:01.548Z,3.05
2019-03-03T07:25:28.947Z,3.75
2019-03-03T07:27:56.334Z,3.72
2019-03-03T07:30:23.927Z,4.15
2019-03-03T07:33:06.198Z,3.17
2019-03-03T07:35:33.627Z,4.30
2019-03-03T07:38:01.018Z,2.45
2019-03-03T07:40:28.423Z,3.40
2019-03-03T07:42:55.886Z,4.12
2019-03-03T07:45:23.283Z,3.78
2019-03-03T07:47:50.703Z,3.97
2019-03-03T07:50:18.147Z,4.28
2019-03-03T07:52:45.563Z,4.10
2019-03-03T07:55:13.061Z,3.15
2019-03-03T07:57:40.448Z,3.17
2019-03-03T08:00:10.631Z,3.75
2019-03-03T08:02:38.179Z,3.47
2019-03-03T08:05:05.586Z,3.90
2019-03-03T08:07:33.003Z,3.40
2019-03-03T08:10:00.403Z,4.22
2019-03-03T08:12:27.814Z,4.68
2019-03-03T08:14:55.228Z,3.65
2019-03-03T08:17:22.619Z,4.75
2019-03-03T08:19:50.025Z,3.97
2019-03-03T08:24:44.497Z,3.70
2019-03-03T08:27:11.904Z,4.40
2019-03-03T08:29:39.308Z,4.18
2019-03-03T08:32:06.711Z,4.53
2019-03-03T08:34:34.214Z,5.82
2019-03-03T08:37:01.656Z,5.20
2019-03-03T08:39:29.215Z,5.95
2019-03-03T08:41:56.606Z,4.57
2019-03-03T08:44:24.079Z,3.80
2019-03-03T08:47:08.210Z,4.57
2019-03-03T08:49:35.654Z,5.00
2019-03-03T08:52:05.652Z,4.50
2019-03-03T08:54:38.657Z,4.32
2019-03-03T08:57:06.431Z,4.03
2019-03-03T08:59:39.344Z,5.00
2019-03-03T09:02:06.750Z,4.00
2019-03-03T09:04:44.869Z,6.22
2019-03-03T09:07:28.101Z,4.28
2019-03-03T09:09:59.963Z,5.03
2019-03-03T09:20:19.326Z,3.90
2019-03-03T09:28:09.861Z,3.75
2019-03-03T09:35:49.577Z,4.10
2019-03-03T09:41:05.279Z,3.42
2019-03-03T09:48:54.545Z,5.03
2019-03-03T09:51:22.767Z,4.57
2019-03-03T09:53:57.592Z,5.30
2019-03-03T09:56:30.911Z,5.28
2019-03-03T10:01:56.151Z,7.40
2019-03-03T10:04:24.500Z,4.30
2019-03-03T10:07:10.886Z,4.72
2019-03-03T10:09:43.889Z,3.53
2019-03-03T10:12:12.128Z,3.92
2019-03-03T10:14:41.439Z,4.40
2019-03-03T10:17:10.890Z,3.90
2019-03-03T10:19:41.765Z,3.62
2019-03-03T10:22:11.591Z,3.05
2019-03-03T10:27:38.602Z,4.60
2019-03-03T10:30:10.332Z,2.53
2019-03-03T10:32:37.736Z,2.25
2019-03-03T10:35:06.955Z,2.58
2019-03-03T10:37:34.381Z,3.20
2019-03-03T10:42:57.386Z,3.20
2019-03-03T10:45:30.507Z,2.00
2019-03-03T10:48:03.455Z,1.90
2019-03-03T10:50:31.674Z,2.00
2019-03-03T10:53:01.586Z,2.22
2019-03-03T10:55:34.436Z,1.83
2019-03-03T10:58:17.802Z,3.00
2019-03-03T11:03:46.731Z,3.47
2019-03-03T11:06:14.207Z,3.42
2019-03-03T11:08:47.204Z,2.47
2019-03-03T11:11:20.223Z,2.62
2019-03-03T11:14:03.534Z,2.20
2019-03-03T11:16:36.453Z,1.70
2019-03-03T11:34:56.767Z,4.87
2019-03-03T11:37:29.952Z,5.68
2019-03-03T11:40:00.341Z,3.00
2019-03-03T11:42:27.581Z,2.72
2019-03-03T11:44:55.195Z,2.92
2019-03-03T11:47:22.592Z,4.18
2019-03-03T11:49:50.005Z,3.67
2019-03-03T11:52:23.148Z,2.35
2019-03-03T11:55:01.324Z,2.78
2019-03-03T11:57:30.219Z,2.67
2019-03-03T12:00:01.461Z,6.50
2019-03-03T12:05:43.620Z,3.70
2019-03-03T12:11:08.133Z,3.70
2019-03-03T12:13:37.919Z,2.50
2019-03-03T12:16:05.351Z,1.65
2019-03-03T12:18:39.059Z,2.17
2019-03-03T12:21:21.389Z,2.03
2019-03-03T12:23:51.179Z,3.60
2019-03-03T12:26:19.372Z,2.33
2019-03-03T12:28:50.272Z,2.17
2019-03-03T12:31:20.573Z,3.12
2019-03-03T12:36:58.844Z,3.20
2019-03-03T12:42:24.729Z,4.00
2019-03-03T12:45:09.924Z,2.30
2019-03-03T12:47:42.335Z,2.60
2019-03-03T12:50:11.455Z,3.17
2019-03-03T12:52:42.778Z,2.37
2019-03-03T12:55:12.697Z,3.42
2019-03-03T12:57:55.824Z,3.17
2019-03-03T13:00:28.801Z,2.58
2019-03-03T13:03:02.031Z,2.37
2019-03-03T13:05:35.247Z,2.33
2019-03-03T13:08:05.245Z,3.10
2019-03-03T13:10:47.526Z,4.82
2019-03-03T13:13:15.451Z,3.45
2019-03-03T13:15:42.918Z,4.18
2019-03-03T13:18:13.244Z,2.65
2019-03-03T13:20:55.553Z,3.42
2019-03-03T13:23:23.810Z,2.42
2019-03-03T13:25:51.318Z,2.67
2019-03-03T13:31:12.750Z,5.00
2019-03-03T13:33:56.239Z,2.85
2019-03-03T13:36:24.147Z,3.25
2019-03-03T13:38:55.969Z,2.62
2019-03-03T13:41:23.402Z,2.40
2019-03-03T13:43:50.816Z,2.60
2019-03-03T13:46:18.224Z,2.97
2019-03-03T13:48:45.634Z,2.50
2019-03-03T13:51:13.140Z,2.70
2019-03-03T13:53:40.534Z,2.10
2019-03-03T13:56:07.971Z,1.95
2019-03-03T13:58:35.428Z,2.53
2019-03-03T14:01:02.860Z,1.90
2019-03-03T14:03:30.632Z,3.15
2019-03-03T14:05:58.190Z,1.50
2019-03-03T14:08:25.624Z,1.98
2019-03-03T14:10:53.061Z,1.73
2019-03-03T14:13:20.462Z,2.00
2019-03-03T14:15:47.867Z,2.00
2019-03-03T14:18:15.339Z,2.42
2019-03-03T14:20:42.759Z,2.87
2019-03-03T14:23:10.235Z,3.30
2019-03-03T14:25:37.655Z,2.00
2019-03-03T14:28:05.090Z,2.60
2019-03-03T14:30:32.487Z,1.92
2019-03-03T14:32:59.963Z,1.45
2019-03-03T14:35:27.405Z,2.00
2019-03-03T14:37:54.812Z,1.60
2019-03-03T14:40:22.247Z,1.10
2019-03-03T14:42:49.656Z,1.27
2019-03-03T14:45:17.095Z,1.40
2019-03-03T14:47:44.686Z,1.62
2019-03-03T14:50:12.163Z,1.52
2019-03-03T14:52:39.791Z,1.85
2019-03-03T14:55:08.154Z,1.55
2019-03-03T14:57:35.609Z,1.17
2019-03-03T15:00:03.051Z,1.62
2019-03-03T15:02:30.595Z,2.15
2019-03-03T15:04:57.989Z,1.70
2019-03-03T15:07:25.387Z,1.30
2019-03-03T15:09:52.829Z,1.23
2019-03-03T15:12:21.147Z,1.67
2019-03-03T15:14:48.585Z,1.10
2019-03-03T15:17:16.014Z,1.70
2019-03-03T15:19:43.449Z,1.60
2019-03-03T15:22:10.851Z,1.37
2019-03-03T15:24:38.249Z,1.70
2019-03-03T15:29:32.625Z,1.70
2019-03-03T15:32:00.073Z,1.50
2019-03-03T15:34:27.502Z,2.03
2019-03-03T15:36:54.995Z,1.87
2019-03-03T15:39:22.442Z,1.50
2019-03-03T15:41:49.836Z,1.25
2019-03-03T15:44:17.683Z,1.00
2019-03-03T15:46:45.125Z,2.03
2019-03-03T15:49:12.623Z,1.77
2019-03-03T15:51:40.008Z,1.65
2019-03-03T15:54:07.423Z,1.52
2019-03-03T15:56:34.817Z,1.92
2019-03-03T15:59:02.218Z,2.15
2019-03-03T16:01:29.629Z,1.20
2019-03-03T16:03:57.115Z,1.70
2019-03-03T16:06:24.507Z,1.73
2019-03-03T16:08:51.912Z,1.70
2019-03-03T16:11:19.348Z,1.30
2019-03-03T16:13:46.774Z,1.30
2019-03-03T16:16:14.209Z,1.35
2019-03-03T16:18:41.642Z,1.75
2019-03-03T16:21:09.205Z,1.42
2019-03-03T16:23:36.692Z,1.58
2019-03-03T16:28:31.680Z,1.60
2019-03-03T16:30:59.132Z,1.40
2019-03-03T16:33:26.578Z,1.48
2019-03-03T16:35:54.811Z,1.95
2019-03-03T16:38:22.315Z,2.10
2019-03-03T16:40:49.750Z,1.98
2019-03-03T16:43:17.171Z,1.85
2019-03-03T16:45:44.597Z,1.42
2019-03-03T16:48:12.004Z,1.25
2019-03-03T16:50:39.459Z,1.40
2019-03-03T16:53:06.851Z,2.22
2019-03-03T16:55:34.275Z,1.67
2019-03-03T16:58:01.695Z,1.58
2019-03-03T17:00:29.094Z,1.52
2019-03-03T17:02:56.487Z,1.87
2019-03-03T17:05:24.031Z,2.20
2019-03-03T17:07:51.460Z,2.00
2019-03-03T17:10:19.567Z,2.15
2019-03-03T17:12:46.954Z,2.60
2019-03-03T17:15:14.399Z,2.55
2019-03-03T17:17:41.784Z,3.00
2019-03-03T17:20:09.206Z,1.48
2019-03-03T17:22:36.600Z,2.50
2019-03-03T17:25:13.004Z,1.75
2019-03-03T17:27:40.417Z,2.03
2019-03-03T17:30:09.500Z,2.22
2019-03-03T17:32:36.933Z,1.35
2019-03-03T17:35:04.364Z,1.67
2019-03-03T17:37:32.799Z,1.90
2019-03-03T17:40:00.315Z,1.73
2019-03-03T17:42:27.681Z,1.65
2019-03-03T17:44:55.091Z,2.20
2019-03-03T17:47:22.503Z,1.83
2019-03-03T17:49:49.972Z,0.95
2019-03-03T17:52:17.414Z,1.85
2019-03-03T17:54:44.883Z,2.25
2019-03-03T17:57:12.292Z,1.80
2019-03-03T17:59:39.708Z,1.20
2019-03-03T18:02:08.048Z,1.10
2019-03-03T18:04:35.489Z,1.30
2019-03-03T18:07:03.602Z,1.17
2019-03-03T18:09:31.394Z,1.67
2019-03-03T18:11:58.855Z,1.70
2019-03-03T18:14:26.306Z,1.35
2019-03-03T18:16:54.107Z,1.75
2019-03-03T18:19:21.715Z,1.17
2019-03-03T18:21:49.216Z,1.90
2019-03-03T18:24:16.616Z,1.75
2019-03-03T18:26:44.059Z,1.87
2019-03-03T18:29:11.539Z,1.95
2019-03-03T18:31:38.942Z,2.72
2019-03-03T18:34:06.573Z,2.45
2019-03-03T18:36:33.967Z,2.28
2019-03-03T18:39:01.375Z,1.45
2019-03-03T18:41:28.827Z,2.00
2019-03-03T18:43:56.224Z,1.77
2019-03-03T18:46:23.652Z,1.95
2019-03-03T18:48:51.061Z,1.50
2019-03-03T18:51:18.497Z,1.20
2019-03-03T18:53:45.992Z,1.80
2019-03-03T18:56:13.399Z,1.50
2019-03-03T18:58:40.811Z,2.95
2019-03-03T19:01:08.219Z,3.08
2019-03-03T19:03:35.625Z,2.00
2019-03-03T19:06:03.076Z,1.95
2019-03-03T19:08:30.533Z,2.80
2019-03-03T19:10:57.977Z,1.48
2019-03-03T19:13:25.479Z,2.60
2019-03-03T19:15:52.882Z,2.40
2019-03-03T19:18:20.341Z,2.12
2019-03-03T19:20:47.773Z,2.08
2019-03-03T19:23:15.211Z,1.85
2019-03-03T19:25:42.615Z,2.20
2019-03-03T19:28:10.019Z,2.30
2019-03-03T19:30:37.424Z,4.00
2019-03-03T19:33:23.391Z,2.05
2019-03-03T19:35:50.809Z,2.12
2019-03-03T19:38:18.211Z,2.37
2019-03-03T19:40:45.639Z,2.03
2019-03-03T19:43:13.760Z,2.40
2019-03-03T19:45:42.009Z,3.17
2019-03-03T19:48:09.520Z,2.72
2019-03-03T19:50:36.913Z,3.08
2019-03-03T19:53:04.329Z,3.67
2019-03-03T19:55:31.749Z,2.40
2019-03-03T19:57:59.167Z,2.95
2019-03-03T20:00:35.375Z,3.05
2019-03-03T20:02:55.591Z,4.55
2019-03-03T20:05:23.127Z,2.87
2019-03-03T20:07:50.538Z,4.15
2019-03-03T20:10:17.947Z,2.85
2019-03-03T20:12:45.427Z,2.60
2019-03-03T20:15:12.841Z,3.20
2019-03-03T20:17:40.249Z,3.35
2019-03-03T20:20:09.438Z,3.83
2019-03-03T20:22:37.716Z,2.62
2019-03-03T20:25:04.247Z,3.40
2019-03-03T20:27:31.646Z,4.57
2019-03-03T20:29:59.065Z,3.50
2019-03-03T20:32:26.499Z,3.05
2019-03-03T20:34:53.979Z,3.03
2019-03-03T20:37:21.516Z,2.67
2019-03-03T20:39:48.922Z,2.78
2019-03-03T20:42:16.387Z,2.92
2019-03-03T20:44:43.802Z,3.83
2019-03-03T20:47:11.227Z,2.90
2019-03-03T20:49:38.816Z,2.67
2019-03-03T20:52:06.834Z,2.58
2019-03-03T20:54:34.246Z,2.40
2019-03-03T20:57:01.666Z,2.12
2019-03-03T20:59:29.229Z,3.25
2019-03-03T21:01:56.616Z,2.95
2019-03-03T21:04:24.034Z,2.78
2019-03-03T21:06:51.472Z,3.45
2019-03-03T21:09:18.917Z,3.00
2019-03-03T21:11:46.386Z,3.80
2019-03-03T21:14:13.810Z,4.50
2019-03-03T21:16:41.322Z,2.78
2019-03-03T21:19:08.720Z,3.05
2019-03-03T21:21:36.158Z,4.68
2019-03-03T21:24:03.626Z,4.60
2019-03-03T21:26:31.035Z,4.05
2019-03-03T21:28:58.494Z,4.18
2019-03-03T21:31:25.902Z,2.90
2019-03-03T21:33:53.394Z,2.20
2019-03-03T21:36:20.816Z,4.50
2019-03-03T21:38:48.380Z,3.22
2019-03-03T21:41:15.795Z,3.70
2019-03-03T21:43:43.222Z,3.62
2019-03-03T21:46:11.169Z,3.95
2019-03-03T21:48:38.603Z,2.83
2019-03-03T21:51:06.797Z,3.30
2019-03-03T21:53:34.523Z,3.17
2019-03-03T21:56:01.974Z,2.42
2019-03-03T21:58:29.397Z,4.03
2019-03-03T22:00:56.848Z,2.90
2019-03-03T22:03:25.266Z,3.33
2019-03-03T22:05:52.671Z,3.58
2019-03-03T22:08:20.086Z,5.47
2019-03-03T22:10:47.557Z,4.12
2019-03-03T22:13:15.003Z,4.05
2019-03-03T22:15:42.420Z,2.40
2019-03-03T22:18:10.761Z,2.00
2019-03-03T22:20:38.163Z,1.67
2019-03-03T22:23:05.587Z,1.50
2019-03-03T22:25:33.017Z,1.70
2019-03-03T22:28:00.434Z,2.75
2019-03-03T22:30:28.003Z,1.92
2019-03-03T22:32:55.402Z,1.55
2019-03-03T22:35:22.817Z,1.35
2019-03-03T22:37:50.223Z,1.25
2019-03-03T22:40:18.361Z,1.40
2019-03-03T22:42:45.763Z,1.35
2019-03-03T22:45:14.954Z,1.52
2019-03-03T22:47:42.346Z,2.00
2019-03-03T22:50:10.266Z,1.40
